createdAt,value
2022-07-26T00:01:48.144Z,15.43
2022-07-26T00:12:10.592Z,21.90
2022-07-26T00:22:36.302Z,20.10
2022-07-26T00:32:57.747Z,21.15
2022-07-26T00:43:21.063Z,22.35
2022-07-26T00:53:42.690Z,25.17
2022-07-26T01:04:06.459Z,21.70
2022-07-26T01:14:28.291Z,21.20
2022-07-26T01:24:51.560Z,20.52
2022-07-26T01:35:13.020Z,20.45
2022-07-26T01:45:36.229Z,24.52
2022-07-26T01:55:57.654Z,22.90
2022-07-26T02:06:20.567Z,22.88
2022-07-26T02:16:41.856Z,26.75
2022-07-26T02:27:06.251Z,29.02
2022-07-26T02:37:27.898Z,23.70
2022-07-26T02:47:52.910Z,24.88
2022-07-26T02:58:15.579Z,24.77
2022-07-26T03:08:38.620Z,27.20
2022-07-26T03:19:01.736Z,26.40
2022-07-26T03:29:25.224Z,24.02
2022-07-26T03:39:46.626Z,24.48
2022-07-26T03:50:13.676Z,35.38
2022-07-26T04:00:35.504Z,19.60
2022-07-26T04:10:58.772Z,25.90
2022-07-26T04:21:20.054Z,29.83
2022-07-26T04:31:43.220Z,28.08
2022-07-26T04:42:05.131Z,25.05
2022-07-26T04:52:27.945Z,21.58
2022-07-26T05:02:50.417Z,25.35
2022-07-26T05:13:13.370Z,27.20
2022-07-26T05:23:35.260Z,24.42
2022-07-26T05:33:57.877Z,21.10
2022-07-26T05:44:19.554Z,23.88
2022-07-26T05:54:44.227Z,17.90
2022-07-26T06:05:06.568Z,11.88
2022-07-26T06:15:29.317Z,9.93
2022-07-26T06:25:51.729Z,6.80
2022-07-26T06:36:15.035Z,17.48
2022-07-26T06:46:36.800Z,9.90
2022-07-26T06:56:59.863Z,12.70
2022-07-26T07:07:21.461Z,12.90
2022-07-26T07:17:44.339Z,14.90
2022-07-26T07:28:06.395Z,11.47
2022-07-26T07:38:29.836Z,9.90
2022-07-26T07:48:53.799Z,7.05
2022-07-26T07:59:16.936Z,3.83
2022-07-26T08:09:38.413Z,8.40
2022-07-26T08:20:06.870Z,8.65
2022-07-26T08:30:30.431Z,4.95
2022-07-26T08:40:54.096Z,5.25
2022-07-26T08:51:17.394Z,4.57
2022-07-26T09:01:55.925Z,5.95
2022-07-26T09:12:19.320Z,5.18
2022-07-26T09:23:02.647Z,3.78
2022-07-26T09:33:24.917Z,4.22
2022-07-26T09:43:53.760Z,3.92
2022-07-26T09:54:19.552Z,6.20
2022-07-26T10:04:43.725Z,7.07
2022-07-26T10:15:05.953Z,2.60
2022-07-26T10:25:49.693Z,8.75
2022-07-26T10:36:23.982Z,5.03
2022-07-26T10:47:15.750Z,4.60
2022-07-26T10:57:39.832Z,6.07
2022-07-26T11:08:09.280Z,4.78
2022-07-26T11:18:35.358Z,11.63
2022-07-26T11:29:06.452Z,3.72
2022-07-26T11:39:30.601Z,4.80
2022-07-26T11:50:13.886Z,5.22
2022-07-26T12:00:35.849Z,4.97
2022-07-26T12:10:58.783Z,3.67
2022-07-26T12:21:21.713Z,2.85
2022-07-26T12:31:45.134Z,8.25
2022-07-26T12:42:33.342Z,5.83
2022-07-26T12:53:03.682Z,6.05
2022-07-26T13:03:25.333Z,3.10
2022-07-26T13:13:49.436Z,2.60
2022-07-26T13:24:11.949Z,2.07
2022-07-26T13:34:39.105Z,3.53
2022-07-26T13:45:00.825Z,1.60
2022-07-26T13:55:23.795Z,2.45
2022-07-26T14:05:45.210Z,2.10
2022-07-26T14:16:08.282Z,2.60
2022-07-26T14:26:30.936Z,2.00
2022-07-26T14:36:54.053Z,5.18
2022-07-26T14:47:15.562Z,3.20
2022-07-26T14:57:40.190Z,3.88
2022-07-26T15:08:06.097Z,3.75
2022-07-26T15:18:29.776Z,5.40
2022-07-26T15:28:51.495Z,2.13
2022-07-26T15:39:18.316Z,2.00
2022-07-26T15:49:40.908Z,5.07
2022-07-26T16:00:11.735Z,7.43
2022-07-26T16:10:33.479Z,5.80
2022-07-26T16:20:56.820Z,1.75
2022-07-26T16:31:18.376Z,1.45
2022-07-26T16:41:41.552Z,1.10
2022-07-26T16:52:02.940Z,1.37
2022-07-26T17:02:25.738Z,3.20
2022-07-26T17:12:47.591Z,3.00
2022-07-26T17:23:11.274Z,1.25
2022-07-26T17:33:32.946Z,2.08
2022-07-26T17:43:55.992Z,1.95
2022-07-26T17:54:17.209Z,3.53
2022-07-26T18:04:40.615Z,2.22
2022-07-26T18:15:02.506Z,4.30
2022-07-26T18:25:25.759Z,2.90
2022-07-26T18:35:47.662Z,2.10
2022-07-26T18:46:10.752Z,2.13
2022-07-26T18:56:32.530Z,4.00
2022-07-26T19:06:56.997Z,1.40
2022-07-26T19:17:18.988Z,2.93
2022-07-26T19:27:42.076Z,2.53
2022-07-26T19:38:04.031Z,2.10
2022-07-26T19:48:27.352Z,3.35
2022-07-26T19:58:49.404Z,2.90
2022-07-26T20:09:13.329Z,1.65
2022-07-26T20:19:35.044Z,4.45
2022-07-26T20:30:01.147Z,1.70
2022-07-26T20:40:23.036Z,2.38
2022-07-26T20:50:49.087Z,6.85
2022-07-26T21:01:12.497Z,3.97
2022-07-26T21:11:36.298Z,9.65
2022-07-26T21:21:58.054Z,6.25
2022-07-26T21:32:21.388Z,4.05
2022-07-26T21:42:43.063Z,4.28
2022-07-26T21:53:05.760Z,3.97
2022-07-26T22:03:27.370Z,3.90
2022-07-26T22:13:50.294Z,4.78
2022-07-26T22:24:12.137Z,7.43
2022-07-26T22:34:35.373Z,6.38
2022-07-26T22:44:57.309Z,9.65
2022-07-26T22:55:20.442Z,2.28
2022-07-26T23:05:46.525Z,8.35
2022-07-26T23:16:11.029Z,3.50
2022-07-26T23:26:32.645Z,4.93
2022-07-26T23:36:55.920Z,5.32
2022-07-26T23:47:17.640Z,6.07
2022-07-26T23:57:40.962Z,9.32
